createdAt,value
2023-05-09T00:00:38.110Z,15.70
2023-05-09T00:03:06.031Z,15.70
2023-05-09T00:05:35.896Z,16.80
2023-05-09T00:08:03.508Z,15.70
2023-05-09T00:10:30.991Z,15.70
2023-05-09T00:12:59.691Z,15.70
2023-05-09T00:15:27.262Z,15.70
2023-05-09T00:17:54.643Z,15.70
2023-05-09T00:20:22.148Z,15.70
2023-05-09T00:22:49.473Z,15.90
2023-05-09T00:25:17.241Z,15.70
2023-05-09T00:27:44.820Z,15.70
2023-05-09T00:30:12.382Z,15.60
2023-05-09T00:32:41.591Z,15.60
2023-05-09T00:35:10.197Z,15.70
2023-05-09T00:37:37.763Z,15.60
2023-05-09T00:40:07.506Z,15.60
2023-05-09T00:42:35.605Z,15.60
2023-05-09T00:45:03.372Z,15.60
2023-05-09T00:47:31.011Z,15.60
2023-05-09T00:49:59.405Z,15.50
2023-05-09T00:52:27.012Z,15.60
2023-05-09T00:54:56.187Z,15.50
2023-05-09T00:57:24.282Z,16.00
2023-05-09T00:59:51.868Z,15.90
2023-05-09T01:02:19.751Z,15.50
2023-05-09T01:04:47.484Z,15.50
2023-05-09T01:07:23.263Z,15.50
2023-05-09T01:10:05.650Z,15.30
2023-05-09T01:12:58.950Z,15.40
2023-05-09T01:15:51.767Z,15.40
2023-05-09T01:18:29.539Z,16.60
2023-05-09T01:21:08.887Z,15.40
2023-05-09T01:23:45.473Z,15.40
2023-05-09T01:26:44.678Z,15.40
2023-05-09T01:29:25.687Z,15.30
2023-05-09T01:31:55.707Z,15.40
2023-05-09T01:34:26.716Z,15.30
2023-05-09T01:36:58.539Z,15.30
2023-05-09T01:39:28.395Z,15.30
2023-05-09T01:42:03.998Z,15.30
2023-05-09T01:44:38.330Z,15.30
2023-05-09T01:47:07.755Z,15.30
2023-05-09T01:49:39.924Z,15.40
2023-05-09T01:52:14.021Z,15.30
2023-05-09T01:54:42.914Z,15.30
2023-05-09T01:57:12.283Z,15.30
2023-05-09T01:59:42.346Z,15.30
2023-05-09T02:02:10.448Z,15.30
2023-05-09T02:04:39.826Z,15.30
2023-05-09T02:07:08.328Z,15.30
2023-05-09T02:09:35.945Z,15.30
2023-05-09T02:12:04.742Z,15.30
2023-05-09T02:14:32.630Z,15.50
2023-05-09T02:17:06.287Z,15.30
2023-05-09T02:19:35.672Z,15.30
2023-05-09T02:22:05.153Z,15.20
2023-05-09T02:24:34.510Z,15.20
2023-05-09T02:27:04.374Z,15.30
2023-05-09T02:29:40.711Z,15.20
2023-05-09T02:32:12.560Z,15.20
2023-05-09T02:34:42.008Z,15.20
2023-05-09T02:37:10.383Z,15.20
2023-05-09T02:39:38.038Z,15.20
2023-05-09T02:42:08.303Z,15.20
2023-05-09T02:44:36.801Z,15.10
2023-05-09T02:47:05.428Z,15.20
2023-05-09T02:49:34.651Z,15.20
2023-05-09T02:52:05.262Z,15.20
2023-05-09T02:54:32.676Z,15.20
2023-05-09T02:57:00.133Z,15.10
2023-05-09T02:59:27.600Z,15.10
2023-05-09T03:01:55.784Z,15.10
2023-05-09T03:04:23.257Z,15.10
2023-05-09T03:06:50.887Z,15.10
2023-05-09T03:09:18.262Z,15.10
2023-05-09T03:11:45.649Z,15.10
2023-05-09T03:14:14.869Z,15.10
2023-05-09T03:16:42.216Z,15.10
2023-05-09T03:19:19.533Z,15.10
2023-05-09T03:21:46.944Z,15.10
2023-05-09T03:24:14.362Z,15.00
2023-05-09T03:26:41.752Z,15.00
2023-05-09T03:29:10.235Z,15.00
2023-05-09T03:31:39.003Z,15.00
2023-05-09T03:34:06.761Z,15.00
2023-05-09T03:36:34.374Z,15.00
2023-05-09T03:39:02.621Z,15.00
2023-05-09T03:41:30.585Z,14.90
2023-05-09T03:43:57.980Z,12.90
2023-05-09T03:46:25.438Z,14.90
2023-05-09T03:48:53.245Z,14.90
2023-05-09T03:51:21.096Z,14.80
2023-05-09T03:53:49.411Z,14.80
2023-05-09T03:56:17.293Z,14.80
2023-05-09T03:58:50.202Z,14.80
2023-05-09T04:01:18.330Z,14.80
2023-05-09T04:03:46.836Z,14.80
2023-05-09T04:06:15.765Z,14.80
2023-05-09T04:08:45.075Z,14.90
2023-05-09T04:11:12.745Z,14.70
2023-05-09T04:13:43.277Z,15.20
2023-05-09T04:16:22.750Z,15.70
2023-05-09T04:18:50.264Z,14.70
2023-05-09T04:21:17.717Z,14.70
2023-05-09T04:23:48.699Z,14.80
2023-05-09T04:26:18.316Z,13.00
2023-05-09T04:28:48.766Z,14.70
2023-05-09T04:31:17.858Z,14.70
2023-05-09T04:33:48.832Z,14.80
2023-05-09T04:36:17.123Z,14.80
2023-05-09T04:38:47.967Z,14.80
2023-05-09T04:41:19.559Z,14.70
2023-05-09T04:43:46.934Z,14.80
2023-05-09T04:46:14.318Z,14.80
2023-05-09T04:48:42.601Z,14.60
2023-05-09T04:51:10.040Z,14.80
2023-05-09T04:53:37.481Z,14.90
2023-05-09T04:56:05.583Z,15.20
2023-05-09T04:58:34.474Z,15.00
2023-05-09T05:01:02.464Z,15.00
2023-05-09T05:03:29.898Z,15.00
2023-05-09T05:05:57.457Z,15.10
2023-05-09T05:08:26.072Z,16.00
2023-05-09T05:10:54.308Z,15.20
2023-05-09T05:13:21.840Z,15.30
2023-05-09T05:15:54.147Z,15.30
2023-05-09T05:18:22.474Z,15.40
2023-05-09T05:20:49.918Z,15.50
2023-05-09T05:23:18.331Z,15.50
2023-05-09T05:25:45.870Z,15.60
2023-05-09T05:28:14.310Z,15.60
2023-05-09T05:30:42.148Z,15.60
2023-05-09T05:33:09.642Z,15.70
2023-05-09T05:35:37.052Z,15.70
2023-05-09T05:38:04.661Z,15.80
2023-05-09T05:40:33.219Z,15.80
2023-05-09T05:43:03.640Z,15.80
2023-05-09T05:45:32.581Z,15.90
2023-05-09T05:48:02.750Z,16.00
2023-05-09T05:50:31.902Z,15.90
2023-05-09T05:52:59.485Z,16.00
2023-05-09T05:55:26.887Z,15.90
2023-05-09T05:57:54.380Z,15.80
2023-05-09T06:00:21.856Z,15.70
2023-05-09T06:02:56.258Z,15.70
2023-05-09T06:05:33.793Z,15.70
2023-05-09T06:08:01.241Z,15.60
2023-05-09T06:10:28.666Z,15.50
2023-05-09T06:12:56.223Z,15.50
2023-05-09T06:15:23.753Z,15.50
2023-05-09T06:17:51.597Z,15.40
2023-05-09T06:20:19.025Z,15.50
2023-05-09T06:22:46.437Z,15.50
2023-05-09T06:25:14.019Z,15.50
2023-05-09T06:27:42.399Z,15.40
2023-05-09T06:32:40.450Z,15.40
2023-05-09T06:35:08.117Z,15.20
2023-05-09T06:37:35.608Z,15.40
2023-05-09T06:40:03.403Z,14.50
2023-05-09T06:42:32.641Z,15.40
2023-05-09T06:45:00.104Z,15.40
2023-05-09T06:47:27.580Z,15.40
2023-05-09T06:49:55.096Z,15.40
2023-05-09T06:52:22.546Z,15.50
2023-05-09T06:54:49.886Z,16.50
2023-05-09T06:57:17.787Z,15.30
2023-05-09T06:59:45.087Z,15.30
2023-05-09T07:02:12.424Z,15.30
2023-05-09T07:04:39.759Z,15.40
2023-05-09T07:07:07.559Z,15.40
2023-05-09T07:09:35.029Z,15.40
2023-05-09T07:12:02.372Z,15.40
2023-05-09T07:14:29.754Z,15.50
2023-05-09T07:17:10.296Z,15.40
2023-05-09T07:19:47.582Z,15.50
2023-05-09T07:22:15.018Z,15.50
2023-05-09T07:24:44.292Z,15.50
2023-05-09T07:27:11.638Z,15.60
2023-05-09T07:29:39.029Z,15.60
2023-05-09T07:32:06.729Z,15.60
2023-05-09T07:34:34.266Z,15.70
2023-05-09T07:37:01.619Z,15.70
2023-05-09T07:39:29.027Z,16.10
2023-05-09T07:41:56.381Z,15.70
2023-05-09T07:44:23.740Z,15.70
2023-05-09T07:46:51.140Z,15.70
2023-05-09T07:49:18.516Z,15.80
2023-05-09T07:51:45.899Z,15.70
2023-05-09T07:54:13.579Z,15.80
2023-05-09T07:56:41.091Z,15.80
2023-05-09T07:59:08.590Z,15.80
2023-05-09T08:01:36.132Z,15.80
2023-05-09T08:04:05.505Z,15.80
2023-05-09T08:06:33.157Z,15.80
2023-05-09T08:09:00.726Z,15.70
2023-05-09T08:11:28.231Z,15.70
2023-05-09T08:13:55.615Z,15.70
2023-05-09T08:16:24.003Z,15.80
2023-05-09T08:18:55.780Z,15.80
2023-05-09T08:21:23.190Z,15.80
2023-05-09T08:23:50.547Z,15.90
2023-05-09T08:26:17.890Z,15.90
2023-05-09T08:28:45.528Z,16.10
2023-05-09T08:31:12.856Z,15.90
2023-05-09T08:33:41.965Z,15.90
2023-05-09T08:36:09.529Z,15.90
2023-05-09T08:38:39.173Z,15.90
2023-05-09T08:41:06.629Z,15.90
2023-05-09T08:43:34.504Z,16.00
2023-05-09T08:46:10.299Z,16.00
2023-05-09T08:48:38.841Z,16.00
2023-05-09T08:51:07.745Z,15.90
2023-05-09T08:53:35.503Z,16.00
2023-05-09T08:56:04.200Z,16.00
2023-05-09T08:58:31.938Z,15.70
2023-05-09T09:01:01.460Z,15.90
2023-05-09T09:03:29.653Z,15.90
2023-05-09T09:05:58.089Z,15.90
2023-05-09T09:08:27.590Z,15.80
2023-05-09T09:10:55.456Z,16.60
2023-05-09T09:13:23.329Z,15.90
2023-05-09T09:15:54.097Z,16.00
2023-05-09T09:18:23.896Z,16.00
2023-05-09T09:20:59.650Z,16.10
2023-05-09T09:23:28.953Z,16.10
2023-05-09T09:26:01.617Z,16.20
2023-05-09T09:28:29.512Z,16.30
2023-05-09T09:30:57.323Z,16.30
2023-05-09T09:33:26.906Z,16.30
2023-05-09T09:35:55.798Z,16.30
2023-05-09T09:38:24.531Z,16.30
2023-05-09T09:40:51.929Z,16.30
2023-05-09T09:43:19.777Z,16.20
2023-05-09T09:45:51.499Z,16.30
2023-05-09T09:48:19.114Z,16.30
2023-05-09T09:50:48.435Z,16.80
2023-05-09T09:53:16.270Z,16.30
2023-05-09T09:55:53.674Z,16.30
2023-05-09T09:58:25.523Z,16.20
2023-05-09T10:01:07.317Z,16.20
2023-05-09T10:03:39.554Z,16.20
2023-05-09T10:06:12.002Z,16.20
2023-05-09T10:08:46.754Z,16.30
2023-05-09T10:11:14.961Z,16.20
2023-05-09T10:13:43.674Z,16.20
2023-05-09T10:16:12.903Z,16.20
2023-05-09T10:18:42.572Z,16.10
2023-05-09T10:21:14.485Z,16.10
2023-05-09T10:23:45.740Z,16.00
2023-05-09T10:26:29.099Z,16.00
2023-05-09T10:28:58.065Z,16.00
2023-05-09T10:31:32.123Z,16.00
2023-05-09T10:34:05.451Z,15.90
2023-05-09T10:36:33.218Z,15.90
2023-05-09T10:39:02.022Z,15.90
2023-05-09T10:41:29.550Z,15.90
2023-05-09T10:43:59.088Z,15.90
2023-05-09T10:46:27.560Z,16.00
2023-05-09T10:48:55.785Z,16.00
2023-05-09T10:51:24.701Z,16.00
2023-05-09T10:53:52.147Z,16.10
2023-05-09T10:56:33.562Z,16.10
2023-05-09T10:59:01.683Z,16.10
2023-05-09T11:01:31.037Z,16.10
2023-05-09T11:04:00.036Z,16.10
2023-05-09T11:06:51.159Z,16.10
2023-05-09T11:09:39.908Z,16.10
2023-05-09T11:12:21.013Z,16.10
2023-05-09T11:14:51.645Z,16.00
2023-05-09T11:17:22.154Z,16.10
2023-05-09T11:19:49.518Z,16.00
2023-05-09T11:22:26.230Z,16.10
2023-05-09T11:25:25.219Z,16.00
2023-05-09T11:27:57.813Z,16.00
2023-05-09T11:30:44.084Z,16.00
2023-05-09T11:33:25.153Z,16.00
2023-05-09T11:36:29.236Z,16.00
2023-05-09T11:39:08.132Z,16.00
2023-05-09T11:41:42.788Z,16.00
2023-05-09T11:44:16.529Z,16.00
2023-05-09T11:46:45.042Z,16.00
2023-05-09T11:49:12.823Z,16.10
2023-05-09T11:51:40.463Z,16.20
2023-05-09T11:54:09.070Z,16.20
2023-05-09T11:56:38.357Z,16.20
2023-05-09T11:59:06.565Z,16.50
2023-05-09T12:01:33.955Z,16.20
2023-05-09T12:04:02.322Z,16.20
2023-05-09T12:06:30.034Z,16.10
2023-05-09T12:08:57.959Z,16.10
2023-05-09T12:11:25.388Z,16.20
2023-05-09T12:13:53.107Z,16.20
2023-05-09T12:16:21.360Z,16.20
2023-05-09T12:18:52.980Z,16.20
2023-05-09T12:21:21.694Z,16.30
2023-05-09T12:23:55.645Z,16.40
2023-05-09T12:26:23.444Z,16.40
2023-05-09T12:28:51.868Z,16.40
2023-05-09T12:31:19.490Z,16.40
2023-05-09T12:33:46.917Z,16.50
2023-05-09T12:36:16.216Z,16.60
2023-05-09T12:38:54.420Z,16.60
2023-05-09T12:43:57.714Z,16.50
2023-05-09T12:46:25.673Z,16.50
2023-05-09T12:48:54.634Z,16.50
2023-05-09T12:51:22.729Z,16.40
2023-05-09T12:53:50.166Z,16.40
2023-05-09T12:56:19.340Z,16.40
2023-05-09T12:58:51.836Z,16.40
2023-05-09T13:01:20.693Z,16.40
2023-05-09T13:04:04.385Z,16.50
2023-05-09T13:06:32.292Z,16.50
2023-05-09T13:09:05.784Z,16.50
2023-05-09T13:11:33.153Z,16.60
2023-05-09T13:14:02.283Z,16.60
2023-05-09T13:16:29.806Z,16.70
2023-05-09T13:18:57.268Z,16.60
2023-05-09T13:21:24.702Z,16.60
2023-05-09T13:23:52.119Z,16.60
2023-05-09T13:26:19.698Z,16.50
2023-05-09T13:28:47.135Z,16.40
2023-05-09T13:31:14.704Z,16.30
2023-05-09T13:33:42.128Z,16.30
2023-05-09T13:36:09.724Z,16.20
2023-05-09T13:38:40.470Z,16.20
2023-05-09T13:41:08.546Z,16.20
2023-05-09T13:43:37.111Z,16.30
2023-05-09T13:46:04.569Z,16.30
2023-05-09T13:48:32.094Z,16.20
2023-05-09T13:51:01.157Z,16.20
2023-05-09T13:53:28.484Z,16.30
2023-05-09T13:55:55.916Z,16.30
2023-05-09T13:58:23.308Z,16.40
2023-05-09T14:00:50.661Z,16.40
2023-05-09T14:03:18.097Z,16.40
2023-05-09T14:05:45.585Z,16.40
2023-05-09T14:08:12.948Z,16.30
2023-05-09T14:10:40.277Z,16.30
2023-05-09T14:13:08.408Z,16.20
2023-05-09T14:15:35.940Z,16.10
2023-05-09T14:18:03.527Z,16.10
2023-05-09T14:20:31.026Z,16.20
2023-05-09T14:23:00.704Z,16.20
2023-05-09T14:25:28.228Z,16.30
2023-05-09T14:27:55.542Z,16.30
2023-05-09T14:30:23.128Z,16.50
2023-05-09T14:32:51.167Z,16.30
2023-05-09T14:35:18.714Z,16.30
2023-05-09T14:37:46.502Z,16.30
2023-05-09T14:40:14.778Z,16.30
2023-05-09T14:42:42.468Z,16.10
2023-05-09T14:45:12.688Z,16.00
2023-05-09T14:47:41.236Z,16.30
2023-05-09T14:50:11.386Z,15.90
2023-05-09T14:52:38.687Z,15.90
2023-05-09T14:55:07.383Z,15.90
2023-05-09T14:57:34.790Z,15.90
2023-05-09T15:00:16.648Z,15.90
2023-05-09T15:02:47.430Z,15.80
2023-05-09T15:05:15.090Z,15.80
2023-05-09T15:07:42.495Z,15.90
2023-05-09T15:10:10.324Z,15.90
2023-05-09T15:12:37.781Z,15.80
2023-05-09T15:15:16.949Z,16.30
2023-05-09T15:17:45.136Z,15.80
2023-05-09T15:20:15.248Z,15.80
2023-05-09T15:22:43.339Z,15.70
2023-05-09T15:25:13.813Z,15.70
2023-05-09T15:27:41.248Z,15.60
2023-05-09T15:30:09.982Z,15.60
2023-05-09T15:32:39.854Z,15.60
2023-05-09T15:35:08.444Z,15.60
2023-05-09T15:37:36.429Z,15.60
2023-05-09T15:40:04.259Z,15.70
2023-05-09T15:42:31.690Z,15.60
2023-05-09T15:44:59.115Z,15.70
2023-05-09T15:47:26.576Z,15.70
2023-05-09T15:49:53.897Z,15.80
2023-05-09T15:52:21.428Z,15.70
2023-05-09T15:54:48.755Z,15.60
2023-05-09T15:57:17.569Z,15.50
2023-05-09T15:59:44.966Z,15.60
2023-05-09T16:02:12.564Z,15.60
2023-05-09T16:04:43.979Z,15.60
2023-05-09T16:07:11.984Z,15.50
2023-05-09T16:09:39.317Z,15.50
2023-05-09T16:12:07.469Z,15.50
2023-05-09T16:14:34.891Z,15.50
2023-05-09T16:17:04.895Z,15.50
2023-05-09T16:19:33.657Z,15.60
2023-05-09T16:22:02.398Z,15.60
2023-05-09T16:24:31.774Z,15.50
2023-05-09T16:26:59.267Z,15.80
2023-05-09T16:29:28.410Z,15.50
2023-05-09T16:31:56.053Z,15.50
2023-05-09T16:34:23.559Z,15.50
2023-05-09T16:36:52.288Z,15.50
2023-05-09T16:39:19.715Z,15.50
2023-05-09T16:41:47.276Z,15.50
2023-05-09T16:44:15.406Z,15.50
2023-05-09T16:46:42.920Z,15.40
2023-05-09T16:49:10.978Z,15.40
2023-05-09T16:51:39.031Z,15.40
2023-05-09T16:54:06.708Z,15.40
2023-05-09T16:56:35.085Z,15.40
2023-05-09T16:59:03.083Z,15.40
2023-05-09T17:01:30.648Z,15.40
2023-05-09T17:03:58.766Z,15.40
2023-05-09T17:06:26.198Z,15.40
2023-05-09T17:08:53.888Z,15.40
2023-05-09T17:11:22.570Z,15.40
2023-05-09T17:13:50.080Z,15.30
2023-05-09T17:16:17.432Z,15.40
2023-05-09T17:18:48.111Z,15.30
2023-05-09T17:21:16.644Z,15.30
2023-05-09T17:23:44.093Z,15.30
2023-05-09T17:26:11.591Z,15.30
2023-05-09T17:28:38.940Z,15.30
2023-05-09T17:31:06.519Z,15.30
2023-05-09T17:33:34.036Z,15.20
2023-05-09T17:36:02.699Z,15.20
2023-05-09T17:38:30.229Z,15.20
2023-05-09T17:40:57.663Z,15.20
2023-05-09T17:43:25.301Z,15.20
2023-05-09T17:45:52.743Z,15.20
2023-05-09T17:48:20.439Z,15.20
2023-05-09T17:50:47.744Z,15.10
2023-05-09T17:53:15.246Z,15.10
2023-05-09T17:55:43.080Z,15.00
2023-05-09T17:58:10.551Z,15.10
2023-05-09T18:00:37.963Z,15.10
2023-05-09T18:03:05.356Z,15.10
2023-05-09T18:05:32.804Z,15.10
2023-05-09T18:08:01.121Z,14.00
2023-05-09T18:10:29.024Z,15.00
2023-05-09T18:12:56.685Z,15.00
2023-05-09T18:15:26.149Z,14.90
2023-05-09T18:17:54.721Z,15.00
2023-05-09T18:20:22.224Z,15.00
2023-05-09T18:22:49.567Z,15.00
2023-05-09T18:25:17.276Z,14.90
2023-05-09T18:27:44.653Z,15.00
2023-05-09T18:30:12.513Z,15.00
2023-05-09T18:32:40.872Z,15.00
2023-05-09T18:35:08.905Z,15.10
2023-05-09T18:37:36.914Z,15.00
2023-05-09T18:40:05.481Z,15.00
2023-05-09T18:42:32.963Z,15.30
2023-05-09T18:45:00.999Z,15.00
2023-05-09T18:47:28.458Z,15.00
2023-05-09T18:49:55.839Z,15.00
2023-05-09T18:52:23.214Z,15.00
2023-05-09T18:54:50.552Z,15.50
2023-05-09T18:57:19.180Z,15.10
2023-05-09T18:59:46.706Z,14.90
2023-05-09T19:02:14.120Z,14.90
2023-05-09T19:04:41.607Z,14.90
2023-05-09T19:07:10.130Z,14.80
2023-05-09T19:09:37.613Z,14.90
2023-05-09T19:12:05.791Z,14.30
2023-05-09T19:14:33.250Z,14.90
2023-05-09T19:17:04.399Z,14.80
2023-05-09T19:19:31.912Z,14.80
2023-05-09T19:22:00.033Z,14.80
2023-05-09T19:24:27.758Z,14.90
2023-05-09T19:26:55.336Z,14.80
2023-05-09T19:29:22.798Z,14.80
2023-05-09T19:31:50.470Z,14.80
2023-05-09T19:34:18.119Z,14.70
2023-05-09T19:36:45.526Z,14.80
2023-05-09T19:39:13.422Z,16.30
2023-05-09T19:41:41.601Z,14.70
2023-05-09T19:44:09.218Z,14.60
2023-05-09T19:46:38.287Z,15.80
2023-05-09T19:49:06.205Z,14.60
2023-05-09T19:51:33.753Z,14.60
2023-05-09T19:54:01.171Z,14.50
2023-05-09T19:56:28.520Z,14.50
2023-05-09T19:58:55.952Z,14.50
2023-05-09T20:01:23.410Z,14.50
2023-05-09T20:03:52.332Z,14.40
2023-05-09T20:06:20.171Z,14.50
2023-05-09T20:08:51.317Z,14.40
2023-05-09T20:11:18.918Z,14.80
2023-05-09T20:13:46.364Z,14.50
2023-05-09T20:16:14.046Z,14.50
2023-05-09T20:18:41.509Z,14.40
2023-05-09T20:21:10.365Z,14.40
2023-05-09T20:23:39.496Z,14.40
2023-05-09T20:26:06.948Z,14.40
2023-05-09T20:28:34.408Z,14.40
2023-05-09T20:31:01.866Z,14.40
2023-05-09T20:33:29.710Z,14.30
2023-05-09T20:35:57.040Z,15.10
2023-05-09T20:38:24.551Z,14.30
2023-05-09T20:40:51.886Z,14.30
2023-05-09T20:43:19.792Z,14.40
2023-05-09T20:45:47.245Z,12.20
2023-05-09T20:48:14.896Z,15.50
2023-05-09T20:50:42.229Z,14.30
2023-05-09T20:53:09.602Z,14.30
2023-05-09T20:55:36.933Z,14.30
2023-05-09T20:58:04.298Z,14.30
2023-05-09T21:00:32.862Z,14.20
2023-05-09T21:03:00.530Z,14.10
2023-05-09T21:05:27.953Z,14.20
2023-05-09T21:07:55.308Z,14.20
2023-05-09T21:10:22.785Z,14.20
2023-05-09T21:12:50.175Z,14.20
2023-05-09T21:15:17.674Z,14.20
2023-05-09T21:17:45.110Z,14.20
2023-05-09T21:20:12.751Z,14.30
2023-05-09T21:22:40.173Z,14.20
2023-05-09T21:25:07.910Z,14.20
2023-05-09T21:27:35.311Z,14.20
2023-05-09T21:30:02.751Z,15.70
2023-05-09T21:32:30.195Z,14.20
2023-05-09T21:34:57.533Z,14.20
2023-05-09T21:37:24.923Z,14.20
2023-05-09T21:39:52.254Z,14.20
2023-05-09T21:42:19.577Z,14.20
2023-05-09T21:44:46.906Z,14.20
2023-05-09T21:47:14.522Z,14.20
2023-05-09T21:49:42.004Z,14.20
2023-05-09T21:52:09.341Z,14.10
2023-05-09T21:54:36.786Z,14.10
2023-05-09T21:57:05.444Z,14.70
2023-05-09T21:59:34.298Z,14.10
2023-05-09T22:02:01.682Z,14.10
2023-05-09T22:04:29.071Z,14.10
2023-05-09T22:06:56.450Z,14.00
2023-05-09T22:09:23.826Z,14.40
2023-05-09T22:11:52.818Z,14.70
2023-05-09T22:14:20.165Z,14.10
2023-05-09T22:16:47.712Z,14.10
2023-05-09T22:19:15.153Z,14.10
2023-05-09T22:21:42.543Z,14.10
2023-05-09T22:24:09.936Z,14.10
2023-05-09T22:26:37.261Z,14.10
2023-05-09T22:29:04.645Z,14.10
2023-05-09T22:31:31.995Z,14.10
2023-05-09T22:33:59.356Z,14.00
2023-05-09T22:36:27.098Z,14.10
2023-05-09T22:38:54.519Z,14.00
2023-05-09T22:41:22.768Z,14.00
2023-05-09T22:43:50.138Z,14.00
2023-05-09T22:46:17.494Z,14.30
2023-05-09T22:48:44.819Z,14.00
2023-05-09T22:51:12.296Z,14.00
2023-05-09T22:53:40.031Z,14.00
2023-05-09T22:56:09.319Z,14.00
2023-05-09T22:58:36.665Z,14.00
2023-05-09T23:01:04.099Z,14.00
2023-05-09T23:03:31.977Z,14.00
2023-05-09T23:05:59.333Z,14.00
2023-05-09T23:08:26.644Z,14.00
2023-05-09T23:10:54.047Z,14.00
2023-05-09T23:13:21.486Z,13.90
2023-05-09T23:15:48.910Z,14.60
2023-05-09T23:18:16.276Z,13.90
2023-05-09T23:20:45.146Z,14.00
2023-05-09T23:23:12.511Z,13.90
2023-05-09T23:25:40.057Z,13.90
2023-05-09T23:28:08.048Z,14.30
2023-05-09T23:30:35.523Z,14.80
2023-05-09T23:33:03.287Z,13.90
2023-05-09T23:35:30.698Z,13.90
2023-05-09T23:37:58.043Z,14.50
2023-05-09T23:40:25.316Z,13.90
2023-05-09T23:42:52.682Z,13.90
2023-05-09T23:45:20.116Z,13.90
2023-05-09T23:47:47.483Z,13.90
2023-05-09T23:50:15.140Z,13.90
2023-05-09T23:52:42.684Z,15.20
2023-05-09T23:55:10.183Z,14.10
2023-05-09T23:57:37.525Z,13.90
